Time;durP1;ratioP1;P1;durP2;ratioP2;P2;SDS_P1;SDS_P2;PMS_P1;PMS_P2;Temp;Humidity;BMP_temperature;BMP_pressure;BME280_temperature;BME280_humidity;BME280_pressure;Samples;Min_cycle;Max_cycle;Signal;HPM_P1;HPM_P2
2023/12/16 00:01:51;;;;;;;9.30;5.10;;;;;;;0.44;100.00;102758.71;106966;1258;68103;-73
2023/12/16 00:04:37;;;;;;;9.40;5.10;;;;;;;0.32;100.00;102763.48;106974;1247;73635;-73
2023/12/16 00:07:06;;;;;;;7.90;4.90;;;;;;;0.37;100.00;102760.91;106971;1252;62827;-75
2023/12/16 00:09:38;;;;;;;9.40;5.30;;;;;;;0.42;100.00;102761.96;107287;1245;58946;-73
2023/12/16 00:12:08;;;;;;;9.20;4.90;;;;;;;0.46;100.00;102758.89;107069;1244;73875;-74
2023/12/16 00:14:38;;;;;;;9.20;5.50;;;;;;;0.44;100.00;102758.02;107198;1244;71650;-74
2023/12/16 00:17:08;;;;;;;9.60;5.50;;;;;;;0.44;100.00;102766.60;107224;1248;68070;-73
2023/12/16 00:19:37;;;;;;;7.60;4.50;;;;;;;0.45;100.00;102770.71;107081;1248;73637;-72
2023/12/16 00:22:06;;;;;;;8.90;5.40;;;;;;;0.47;100.00;102773.80;107125;1257;60660;-72
2023/12/16 00:24:37;;;;;;;8.30;5.20;;;;;;;0.46;100.00;102776.72;107220;1245;59434;-72
2023/12/16 00:27:06;;;;;;;9.10;5.20;;;;;;;0.52;100.00;102777.76;107214;1245;70769;-72
2023/12/16 00:29:35;;;;;;;9.80;4.90;;;;;;;0.56;100.00;102779.84;107238;1247;69511;-74
2023/12/16 00:32:05;;;;;;;8.60;5.00;;;;;;;0.61;100.00;102784.81;107241;1253;68128;-74
2023/12/16 00:34:33;;;;;;;10.00;5.40;;;;;;;0.59;100.00;102784.80;107171;1245;72731;-74
2023/12/16 00:37:06;;;;;;;8.70;5.10;;;;;;;0.54;100.00;102787.19;107120;1245;62122;-75
2023/12/16 00:39:35;;;;;;;8.70;5.00;;;;;;;0.55;100.00;102787.36;107135;1248;60432;-76
2023/12/16 00:42:04;;;;;;;10.40;5.10;;;;;;;0.49;100.00;102784.95;107070;1245;71661;-74
2023/12/16 00:44:33;;;;;;;12.40;6.00;;;;;;;0.63;100.00;102792.88;107172;1245;70557;-72
2023/12/16 00:47:03;;;;;;;10.00;5.00;;;;;;;0.56;100.00;102797.48;107145;1245;69030;-73
2023/12/16 00:49:32;;;;;;;10.00;5.50;;;;;;;0.54;100.00;102796.28;107139;1245;70978;-73
2023/12/16 00:52:03;;;;;;;10.40;4.90;;;;;;;0.58;100.00;102796.63;107094;1248;62097;-72
2023/12/16 00:54:32;;;;;;;10.30;5.80;;;;;;;0.59;100.00;102796.46;106968;1245;60709;-72
2023/12/16 00:57:00;;;;;;;10.80;5.70;;;;;;;0.58;100.00;102789.77;107032;1244;72621;-72
2023/12/16 00:59:29;;;;;;;11.40;6.50;;;;;;;0.57;100.00;102788.91;106970;1248;71989;-72
2023/12/16 01:01:59;;;;;;;12.50;6.00;;;;;;;0.59;100.00;102793.55;106958;1248;69906;-73
2023/12/16 01:04:28;;;;;;;10.70;5.70;;;;;;;0.57;100.00;102794.23;106935;1249;72257;-72
2023/12/16 01:06:57;;;;;;;10.90;6.00;;;;;;;0.58;100.00;102789.95;107035;1245;59441;-72
2023/12/16 01:09:26;;;;;;;11.90;5.80;;;;;;;0.61;100.00;102794.41;107054;1245;59405;-74
2023/12/16 01:11:56;;;;;;;11.20;6.20;;;;;;;0.59;100.00;102790.30;107056;1245;70729;-72
2023/12/16 01:14:24;;;;;;;13.10;6.30;;;;;;;0.54;100.00;102797.83;107191;1256;72452;-72
2023/12/16 01:16:54;;;;;;;13.00;7.30;;;;;;;0.54;100.00;102799.37;107169;1257;70087;-73
2023/12/16 01:19:23;;;;;;;10.30;5.80;;;;;;;0.46;100.00;102809.30;107162;1245;72500;-74
2023/12/16 01:21:52;;;;;;;11.70;6.30;;;;;;;0.40;100.00;102806.70;107165;1245;59419;-72
2023/12/16 01:24:21;;;;;;;10.20;5.40;;;;;;;0.41;100.00;102801.39;107116;1257;59109;-72
2023/12/16 01:26:50;;;;;;;12.90;6.80;;;;;;;0.40;100.00;102805.33;107240;1245;70452;-72
2023/12/16 01:29:19;;;;;;;11.30;6.60;;;;;;;0.39;100.00;102800.88;107042;1245;70084;-72
2023/12/16 01:31:48;;;;;;;12.40;6.70;;;;;;;0.27;100.00;102803.06;107096;1245;68119;-77
2023/12/16 01:34:17;;;;;;;11.80;6.30;;;;;;;0.23;100.00;102803.05;106974;1248;71052;-73
2023/12/16 01:36:46;;;;;;;10.80;6.20;;;;;;;0.26;100.00;102805.80;107124;1254;62458;-72
2023/12/16 01:39:15;;;;;;;11.40;5.70;;;;;;;0.17;100.00;102802.16;107007;1245;61624;-74
2023/12/16 01:41:44;;;;;;;10.80;6.00;;;;;;;0.14;100.00;102799.23;106995;1244;71725;-74
2023/12/16 01:44:13;;;;;;;10.40;6.10;;;;;;;0.10;100.00;102794.76;107153;1244;71720;-72
2023/12/16 01:46:43;;;;;;;9.50;5.50;;;;;;;-0.01;100.00;102791.98;107160;1244;70557;-72
2023/12/16 01:49:12;;;;;;;14.60;6.40;;;;;;;-0.06;100.00;102794.69;107176;1246;72204;-73
2023/12/16 01:51:44;;;;;;;9.90;5.30;;;;;;;-0.12;100.00;102795.86;107180;1245;62174;-73
2023/12/16 01:54:13;;;;;;;10.20;5.80;;;;;;;-0.32;100.00;102789.58;107120;1252;61446;-72
2023/12/16 01:56:43;;;;;;;10.20;4.90;;;;;;;-0.41;100.00;102791.92;106820;1251;72617;-72
2023/12/16 01:59:11;;;;;;;8.80;4.90;;;;;;;-0.48;100.00;102788.11;107156;1244;70737;-73
2023/12/16 02:01:40;;;;;;;10.80;6.00;;;;;;;-0.53;100.00;102790.30;107115;1244;69182;-73
2023/12/16 02:04:10;;;;;;;10.60;6.00;;;;;;;-0.52;100.00;102790.82;107178;1245;72584;-74
2023/12/16 02:06:39;;;;;;;10.40;5.70;;;;;;;-0.61;100.00;102790.06;107023;1248;60608;-73
2023/12/16 02:09:09;;;;;;;11.20;5.80;;;;;;;-0.78;100.00;102784.98;107207;1245;61131;-73
2023/12/16 02:11:38;;;;;;;12.80;6.00;;;;;;;-0.79;100.00;102792.34;107190;1243;72651;-73
2023/12/16 02:14:07;;;;;;;12.20;6.50;;;;;;;-0.82;100.00;102791.79;107233;1245;72802;-71
2023/12/16 02:16:36;;;;;;;13.00;6.90;;;;;;;-0.86;100.00;102790.57;107198;1256;70629;-72
2023/12/16 02:19:11;;;;;;;13.10;6.30;;;;;;;-0.94;100.00;102798.54;107176;1245;71353;-73
2023/12/16 02:21:40;;;;;;;15.60;6.70;;;;;;;-1.01;100.00;102809.08;107133;1246;61118;-71
2023/12/16 02:24:09;;;;;;;12.40;6.60;;;;;;;-1.07;100.00;102806.98;107026;1249;61371;-72
2023/12/16 02:26:38;;;;;;;15.80;7.10;;;;;;;-1.13;100.00;102806.07;107067;1249;72548;-72
2023/12/16 02:29:07;;;;;;;12.20;6.60;;;;;;;-1.20;100.00;102810.10;107168;1245;71195;-71
2023/12/16 02:31:36;;;;;;;12.50;6.80;;;;;;;-1.25;100.00;102810.73;107028;1256;68109;-71
2023/12/16 02:34:05;;;;;;;15.80;7.00;;;;;;;-1.29;100.00;102808.63;107112;1249;71677;-72
2023/12/16 02:36:35;;;;;;;13.30;6.70;;;;;;;-1.37;100.00;102817.61;107372;1243;61814;-72
2023/12/16 02:39:04;;;;;;;14.70;7.30;;;;;;;-1.34;100.00;102823.64;107394;1255;61844;-73
2023/12/16 02:41:33;;;;;;;12.30;6.40;;;;;;;-1.27;100.00;102826.77;107402;1252;70040;-73
2023/12/16 02:44:03;;;;;;;14.70;7.60;;;;;;;-1.28;100.00;102828.98;107308;1249;70110;-73
2023/12/16 02:46:32;;;;;;;18.00;10.60;;;;;;;-1.27;100.00;102838.23;107213;1248;68582;-72
2023/12/16 02:49:01;;;;;;;19.90;9.70;;;;;;;-1.30;100.00;102839.40;107312;1245;71041;-73
2023/12/16 02:51:30;;;;;;;15.00;8.30;;;;;;;-1.34;100.00;102838.16;107226;1246;59468;-74
2023/12/16 02:53:59;;;;;;;17.30;8.70;;;;;;;-1.40;100.00;102839.47;107349;1244;59078;-72
2023/12/16 02:56:28;;;;;;;13.60;8.10;;;;;;;-1.46;100.00;102851.70;107358;1245;70242;-71
2023/12/16 02:58:57;;;;;;;15.40;9.60;;;;;;;-1.48;100.00;102846.21;107370;1255;70514;-71
2023/12/16 03:01:26;;;;;;;19.00;10.50;;;;;;;-1.45;100.00;102846.59;107356;1245;68600;-74
2023/12/16 03:03:58;;;;;;;16.80;9.30;;;;;;;-1.42;100.00;102849.18;107331;1246;73466;-72
2023/12/16 03:06:27;;;;;;;15.40;9.00;;;;;;;-1.42;100.00;102853.45;107274;1245;62093;-71
2023/12/16 03:08:59;;;;;;;17.30;9.80;;;;;;;-1.39;100.00;102848.54;107233;1246;61137;-72
2023/12/16 03:11:31;;;;;;;17.80;9.10;;;;;;;-1.31;100.00;102849.48;107011;1244;72704;-72
2023/12/16 03:14:02;;;;;;;17.00;9.80;;;;;;;-1.23;100.00;102854.01;107251;1248;70206;-73
2023/12/16 03:16:34;;;;;;;17.80;9.70;;;;;;;-1.23;100.00;102845.96;107363;1253;67799;-73
2023/12/16 03:19:04;;;;;;;22.30;13.80;;;;;;;-1.26;100.00;102842.00;107182;1248;71867;-73
2023/12/16 03:21:34;;;;;;;15.50;9.10;;;;;;;-1.27;100.00;102842.50;107140;1249;61380;-73
2023/12/16 03:24:05;;;;;;;21.00;12.10;;;;;;;-1.27;100.00;102846.95;107045;1256;62006;-73
2023/12/16 03:26:33;;;;;;;16.10;8.60;;;;;;;-1.40;100.00;102853.14;107383;1246;72141;-73
2023/12/16 03:29:02;;;;;;;15.60;8.00;;;;;;;-1.45;100.00;102847.95;107054;1256;73051;-73
2023/12/16 03:31:31;;;;;;;14.50;7.30;;;;;;;-1.48;100.00;102844.66;107284;1256;68517;-73
2023/12/16 03:34:00;;;;;;;14.50;7.70;;;;;;;-1.52;100.00;102843.27;107045;1256;72173;-73
2023/12/16 03:36:30;;;;;;;16.70;8.70;;;;;;;-1.55;100.00;102835.02;107179;1245;62528;-72
2023/12/16 03:38:59;;;;;;;16.50;9.60;;;;;;;-1.54;100.00;102835.55;107152;1245;61219;-72
2023/12/16 03:41:28;;;;;;;14.60;8.30;;;;;;;-1.56;100.00;102836.55;107075;1244;72261;-73
2023/12/16 03:43:57;;;;;;;15.90;8.60;;;;;;;-1.53;100.00;102842.90;109487;1245;70192;-73
2023/12/16 03:46:26;;;;;;;18.20;9.20;;;;;;;-1.58;100.00;102851.91;109476;1244;69745;-73
2023/12/16 03:48:55;;;;;;;17.00;8.40;;;;;;;-1.58;100.00;102866.61;109449;1245;71676;-73
2023/12/16 03:51:24;;;;;;;15.80;7.40;;;;;;;-1.53;100.00;102872.48;109439;1244;60243;-73
2023/12/16 03:53:52;;;;;;;13.30;7.20;;;;;;;-1.48;100.00;102872.52;109603;1243;60985;-72
2023/12/16 03:56:21;;;;;;;13.20;7.30;;;;;;;-1.44;100.00;102870.70;109571;1245;73754;-72
2023/12/16 03:58:50;;;;;;;14.80;7.10;;;;;;;-1.41;100.00;102873.82;109610;1242;69355;-73
2023/12/16 04:01:19;;;;;;;12.30;6.70;;;;;;;-1.44;100.00;102879.77;109517;1243;69454;-73
2023/12/16 04:03:47;;;;;;;13.00;7.20;;;;;;;-1.43;100.00;102888.31;109540;1243;73877;-73
2023/12/16 04:06:16;;;;;;;14.10;7.80;;;;;;;-1.45;100.00;102889.83;109457;1245;59905;-73
2023/12/16 04:08:45;;;;;;;15.40;8.30;;;;;;;-1.43;100.00;102889.34;109451;1244;58813;-73
2023/12/16 04:11:14;;;;;;;18.20;8.50;;;;;;;-1.41;100.00;102892.80;109438;1243;71094;-73
2023/12/16 04:13:42;;;;;;;17.60;8.60;;;;;;;-1.37;100.00;102891.98;109451;1244;72461;-72
2023/12/16 04:16:11;;;;;;;15.30;8.00;;;;;;;-1.36;100.00;102889.25;109463;1245;67966;-72
2023/12/16 04:18:40;;;;;;;17.50;8.20;;;;;;;-1.39;100.00;102888.36;109427;1245;71633;-72
2023/12/16 04:21:09;;;;;;;16.20;8.80;;;;;;;-1.39;100.00;102889.40;109442;1244;61899;-72
2023/12/16 04:23:37;;;;;;;16.10;8.50;;;;;;;-1.33;100.00;102895.10;109466;1244;60766;-71
2023/12/16 04:26:06;;;;;;;16.60;8.90;;;;;;;-1.40;100.00;102902.38;109419;1245;70873;-72
2023/12/16 04:28:42;;;;;;;14.80;8.10;;;;;;;-1.40;100.00;102907.67;109558;1245;71279;-75
2023/12/16 04:31:16;;;;;;;17.10;8.40;;;;;;;-1.46;100.00;102907.61;109484;1241;70627;-71
2023/12/16 04:33:46;;;;;;;16.60;8.90;;;;;;;-1.37;100.00;102904.63;109485;1245;74303;-73
2023/12/16 04:36:17;;;;;;;18.90;9.70;;;;;;;-1.32;100.00;102906.73;109321;1248;62213;-72
2023/12/16 04:38:46;;;;;;;16.80;9.40;;;;;;;-1.25;100.00;102906.65;109557;1244;61036;-72
2023/12/16 04:41:14;;;;;;;20.00;10.40;;;;;;;-1.23;100.00;102906.66;109558;1245;71976;-72
2023/12/16 04:43:43;;;;;;;16.90;10.00;;;;;;;-1.12;100.00;102912.27;109485;1246;69104;-72
2023/12/16 04:46:12;;;;;;;16.10;9.50;;;;;;;-1.11;100.00;102906.12;109577;1245;68339;-72
2023/12/16 04:48:41;;;;;;;19.70;9.70;;;;;;;-1.00;100.00;102903.67;109322;1246;71672;-72
2023/12/16 04:51:10;;;;;;;18.30;10.30;;;;;;;-1.07;100.00;102906.17;109218;1246;60442;-72
2023/12/16 04:53:39;;;;;;;16.30;9.20;;;;;;;-0.98;100.00;102908.83;109398;1244;59984;-73
2023/12/16 04:56:08;;;;;;;15.80;8.80;;;;;;;-0.93;100.00;102907.00;109385;1242;73785;-72
2023/12/16 04:58:37;;;;;;;15.60;7.60;;;;;;;-0.90;100.00;102896.42;109356;1244;71568;-73
2023/12/16 05:01:05;;;;;;;15.00;7.90;;;;;;;-0.84;100.00;102897.34;109400;1243;70557;-72
2023/12/16 05:03:34;;;;;;;14.00;7.10;;;;;;;-0.80;100.00;102897.37;109328;1245;73472;-73
2023/12/16 05:06:06;;;;;;;14.40;8.10;;;;;;;-0.82;100.00;102901.13;109411;1245;58926;-73
2023/12/16 05:08:42;;;;;;;15.20;8.30;;;;;;;-0.83;100.00;102903.34;109231;1244;60419;-72
2023/12/16 05:11:10;;;;;;;16.10;9.10;;;;;;;-0.92;100.00;102903.77;109453;1245;72402;-72
2023/12/16 05:13:39;;;;;;;18.20;10.40;;;;;;;-0.75;100.00;102899.31;109424;1244;70207;-72
2023/12/16 05:16:08;;;;;;;17.90;8.70;;;;;;;-0.61;100.00;102894.30;109303;1243;70431;-72
2023/12/16 05:18:37;;;;;;;16.20;9.70;;;;;;;-0.79;100.00;102896.02;109415;1245;71108;-73
2023/12/16 05:21:06;;;;;;;19.70;11.00;;;;;;;-0.83;100.00;102895.98;109344;1245;61283;-73
2023/12/16 05:23:35;;;;;;;24.10;14.10;;;;;;;-0.82;100.00;102900.27;109488;1245;61061;-73
2023/12/16 05:26:04;;;;;;;22.20;12.40;;;;;;;-0.80;100.00;102899.09;109486;1245;72665;-73
2023/12/16 05:28:33;;;;;;;21.20;11.70;;;;;;;-0.78;100.00;102898.27;109494;1245;71104;-73
2023/12/16 05:31:02;;;;;;;23.30;11.70;;;;;;;-0.73;100.00;102901.91;109329;1243;70898;-75
2023/12/16 05:33:31;;;;;;;23.20;11.50;;;;;;;-0.72;100.00;102895.58;109608;1244;72650;-73
2023/12/16 05:36:00;;;;;;;20.10;11.20;;;;;;;-0.82;100.00;102891.70;109632;1245;61870;-73
2023/12/16 05:38:28;;;;;;;21.10;11.50;;;;;;;-0.77;100.00;102882.86;109650;1245;60581;-73
2023/12/16 05:40:57;;;;;;;21.80;11.10;;;;;;;-0.70;100.00;102888.57;109657;1244;70042;-73
2023/12/16 05:43:26;;;;;;;25.20;11.60;;;;;;;-0.79;100.00;102886.27;109524;1246;70111;-72
2023/12/16 05:45:55;;;;;;;25.10;12.80;;;;;;;-0.75;100.00;102890.41;109543;1244;68418;-73
2023/12/16 05:48:23;;;;;;;25.40;12.90;;;;;;;-0.73;100.00;102886.33;109657;1244;73586;-72
2023/12/16 05:50:52;;;;;;;21.80;12.00;;;;;;;-0.72;100.00;102887.37;109610;1246;62188;-72
2023/12/16 05:53:21;;;;;;;22.80;12.10;;;;;;;-0.70;100.00;102888.91;109610;1244;59235;-72
2023/12/16 05:55:50;;;;;;;23.10;11.80;;;;;;;-0.54;100.00;102891.96;109684;1243;73445;-73
2023/12/16 05:58:18;;;;;;;21.70;12.00;;;;;;;-0.51;100.00;102881.72;109539;1244;72443;-73
2023/12/16 06:00:49;;;;;;;23.50;12.40;;;;;;;-0.44;100.00;102873.21;109656;1242;68978;-73
2023/12/16 06:03:18;;;;;;;25.30;13.40;;;;;;;-0.46;100.00;102870.80;109541;1245;71866;-73
2023/12/16 06:05:47;;;;;;;27.70;15.20;;;;;;;-0.43;100.00;102867.40;109633;1244;60473;-73
2023/12/16 06:08:16;;;;;;;23.10;13.70;;;;;;;-0.50;100.00;102869.58;109480;1244;59653;-73
2023/12/16 06:10:44;;;;;;;26.20;14.10;;;;;;;-0.59;100.00;102870.70;109526;1244;73209;-73
2023/12/16 06:13:13;;;;;;;23.80;13.70;;;;;;;-0.57;100.00;102870.72;109519;1243;72051;-73
2023/12/16 06:15:43;;;;;;;21.00;12.80;;;;;;;-0.64;100.00;102869.29;109660;1243;68374;-73
2023/12/16 06:18:12;;;;;;;21.20;13.20;;;;;;;-0.65;100.00;102872.53;109653;1245;73219;-72
2023/12/16 06:20:41;;;;;;;21.10;12.10;;;;;;;-0.71;100.00;102862.03;109651;1244;60705;-73
2023/12/16 06:23:10;;;;;;;20.10;10.90;;;;;;;-0.66;100.00;102863.29;109648;1245;60581;-73
2023/12/16 06:25:38;;;;;;;20.40;12.10;;;;;;;-0.68;100.00;102866.68;109627;1244;74019;-73
2023/12/16 06:28:08;;;;;;;20.60;12.40;;;;;;;-0.71;100.00;102865.12;109647;1244;72548;-73
2023/12/16 06:30:38;;;;;;;25.00;14.50;;;;;;;-0.69;100.00;102866.33;109704;1245;70610;-73
2023/12/16 06:33:07;;;;;;;25.50;14.60;;;;;;;-0.68;100.00;102867.55;109670;1245;71701;-73
2023/12/16 06:35:36;;;;;;;28.40;15.70;;;;;;;-0.62;100.00;102867.27;109638;1245;62318;-72
2023/12/16 06:38:04;;;;;;;31.10;17.40;;;;;;;-0.70;100.00;102870.77;109591;1243;59810;-74
2023/12/16 06:40:33;;;;;;;34.30;18.20;;;;;;;-0.55;100.00;102872.45;109454;1244;72240;-73
2023/12/16 06:43:02;;;;;;;28.90;14.90;;;;;;;-0.36;100.00;102862.50;109584;1244;70256;-71
2023/12/16 06:45:34;;;;;;;22.40;13.20;;;;;;;-0.34;100.00;102872.27;109468;1244;70272;-73
2023/12/16 06:48:02;;;;;;;24.60;11.90;;;;;;;-0.33;100.00;102873.14;109560;1245;74098;-73
2023/12/16 06:50:31;;;;;;;23.00;12.90;;;;;;;-0.31;100.00;102877.27;109507;1244;62317;-73
2023/12/16 06:53:00;;;;;;;20.40;11.20;;;;;;;-0.30;100.00;102877.94;109476;1245;59958;-73
2023/12/16 06:55:29;;;;;;;26.10;13.30;;;;;;;-0.27;100.00;102882.59;109623;1244;72580;-73
2023/12/16 06:57:58;;;;;;;17.80;9.90;;;;;;;-0.35;100.00;102886.98;109544;1244;72384;-73
2023/12/16 07:00:26;;;;;;;19.40;10.70;;;;;;;-0.29;100.00;102887.20;109541;1244;70349;-73
2023/12/16 07:02:55;;;;;;;24.30;11.80;;;;;;;-0.18;100.00;102892.07;109505;1244;71806;-73
2023/12/16 07:05:25;;;;;;;17.90;10.20;;;;;;;-0.17;100.00;102893.95;109577;1243;60748;-74
2023/12/16 07:07:54;;;;;;;19.30;10.60;;;;;;;-0.21;100.00;102900.79;109472;1243;60730;-73
2023/12/16 07:10:22;;;;;;;23.30;13.60;;;;;;;-0.14;100.00;102905.29;109611;1244;72507;-73
2023/12/16 07:12:51;;;;;;;24.40;13.50;;;;;;;-0.12;100.00;102905.83;109532;1244;71554;-74
2023/12/16 07:15:20;;;;;;;22.70;11.90;;;;;;;-0.02;100.00;102909.83;109514;1243;68542;-73
2023/12/16 07:17:49;;;;;;;24.80;13.90;;;;;;;-0.02;100.00;102906.58;109432;1246;70021;-75
2023/12/16 07:20:18;;;;;;;30.30;14.20;;;;;;;-0.07;100.00;102908.77;109521;1245;60364;-73
2023/12/16 07:22:46;;;;;;;21.80;13.10;;;;;;;-0.01;100.00;102904.02;109568;1244;61801;-73
2023/12/16 07:25:16;;;;;;;25.30;13.90;;;;;;;0.08;100.00;102906.46;109459;1244;74278;-73
2023/12/16 07:27:44;;;;;;;26.70;14.60;;;;;;;0.15;100.00;102913.53;109525;1245;71824;-73
2023/12/16 07:30:16;;;;;;;25.60;13.90;;;;;;;0.23;100.00;102914.10;109577;1244;70398;-73
2023/12/16 07:32:45;;;;;;;27.80;17.20;;;;;;;0.31;100.00;102910.02;109603;1245;73477;-72
2023/12/16 07:35:15;;;;;;;28.40;14.40;;;;;;;0.41;100.00;102905.44;109574;1244;61110;-72
2023/12/16 07:37:44;;;;;;;31.50;16.40;;;;;;;0.45;100.00;102909.92;109523;1244;61980;-73
2023/12/16 07:40:13;;;;;;;28.50;17.50;;;;;;;0.57;100.00;102916.48;109565;1244;73598;-72
2023/12/16 07:42:42;;;;;;;30.50;16.70;;;;;;;0.75;100.00;102917.43;109448;1245;72613;-73
2023/12/16 07:45:10;;;;;;;24.30;13.00;;;;;;;0.86;100.00;102925.35;109541;1244;70234;-72
2023/12/16 07:47:39;;;;;;;21.40;10.50;;;;;;;0.87;100.00;102922.95;109611;1244;72399;-72
2023/12/16 07:50:10;;;;;;;21.60;11.60;;;;;;;0.85;100.00;102918.67;109571;1244;61319;-73
2023/12/16 07:52:39;;;;;;;25.40;13.30;;;;;;;0.85;100.00;102923.80;109584;1242;60520;-73
2023/12/16 07:55:08;;;;;;;41.10;18.80;;;;;;;0.86;100.00;102923.64;109605;1244;71437;-74
2023/12/16 07:57:37;;;;;;;23.70;13.00;;;;;;;0.88;100.00;102928.27;109568;1244;70285;-73
2023/12/16 08:00:09;;;;;;;28.40;12.80;;;;;;;0.94;100.00;102928.13;109474;1243;71545;-73
2023/12/16 08:02:37;;;;;;;18.80;11.60;;;;;;;0.91;100.00;102929.30;109600;1243;73526;-73
2023/12/16 08:05:07;;;;;;;19.20;10.70;;;;;;;0.86;100.00;102935.65;109367;1244;60296;-73
2023/12/16 08:07:35;;;;;;;25.40;12.00;;;;;;;0.95;100.00;102931.90;109365;1243;59458;-73
2023/12/16 08:10:05;;;;;;;21.80;11.10;;;;;;;0.94;100.00;102933.27;109344;1244;74251;-75
2023/12/16 08:12:34;;;;;;;27.10;13.30;;;;;;;0.99;100.00;102934.48;109453;1244;72488;-74
2023/12/16 08:15:04;;;;;;;28.00;13.70;;;;;;;0.99;100.00;102931.39;109337;1244;69174;-73
2023/12/16 08:17:33;;;;;;;31.80;15.30;;;;;;;0.99;100.00;102929.34;109378;1242;73864;-75
2023/12/16 08:20:01;;;;;;;23.90;12.60;;;;;;;0.98;100.00;102930.71;109360;1245;61352;-75
2023/12/16 08:22:30;;;;;;;30.50;16.00;;;;;;;1.04;100.00;102935.70;109456;1244;61036;-74
2023/12/16 08:24:59;;;;;;;32.50;16.10;;;;;;;0.97;100.00;102936.70;109328;1243;72153;-74
2023/12/16 08:27:28;;;;;;;33.20;15.60;;;;;;;1.06;100.00;102937.77;109299;1243;69666;-75
2023/12/16 08:29:57;;;;;;;34.80;16.50;;;;;;;0.98;100.00;102939.28;109440;1244;70924;-73
2023/12/16 08:32:25;;;;;;;34.10;17.90;;;;;;;1.02;100.00;102939.64;109435;1244;74353;-74
2023/12/16 08:34:55;;;;;;;25.50;10.30;;;;;;;0.94;100.00;102944.08;109409;1244;61730;-74
2023/12/16 08:37:24;;;;;;;25.90;13.10;;;;;;;1.07;100.00;102935.20;109411;1244;60142;-74
2023/12/16 08:39:53;;;;;;;22.20;13.20;;;;;;;0.99;100.00;102936.55;109351;1244;73472;-73
2023/12/16 08:42:21;;;;;;;27.90;13.40;;;;;;;0.98;100.00;102938.27;109331;1244;71600;-76
2023/12/16 08:44:50;;;;;;;25.30;13.30;;;;;;;0.98;100.00;102936.02;109435;1243;70402;-74
2023/12/16 08:47:19;;;;;;;24.00;14.20;;;;;;;0.99;100.00;102929.86;109427;1245;70959;-73
2023/12/16 08:49:48;;;;;;;29.10;15.30;;;;;;;1.07;100.00;102930.39;109542;1244;61140;-72
2023/12/16 08:52:20;;;;;;;25.60;14.30;;;;;;;1.17;100.00;102931.95;109584;1243;59904;-74
2023/12/16 08:54:49;;;;;;;22.70;12.60;;;;;;;1.21;100.00;102934.20;109425;1243;71576;-73
2023/12/16 08:57:21;;;;;;;24.70;13.70;;;;;;;1.27;100.00;102927.86;109614;1243;71888;-76
2023/12/16 08:59:50;;;;;;;22.80;12.10;;;;;;;1.33;100.00;102931.46;109605;1244;70041;-76
2023/12/16 09:02:18;;;;;;;17.40;10.60;;;;;;;1.47;100.00;102924.96;109614;1243;72192;-76
2023/12/16 09:04:47;;;;;;;20.80;10.60;;;;;;;1.52;100.00;102918.95;109557;1244;59686;-76
2023/12/16 09:07:17;;;;;;;19.00;10.80;;;;;;;1.55;100.00;102912.44;109460;1244;58998;-76
2023/12/16 09:09:45;;;;;;;24.70;13.20;;;;;;;1.53;100.00;102914.15;109502;1243;72684;-76
2023/12/16 09:12:14;;;;;;;22.50;12.30;;;;;;;1.58;100.00;102916.20;109476;1244;71237;-77
2023/12/16 09:14:43;;;;;;;21.80;12.80;;;;;;;1.68;100.00;102915.17;109594;1242;68699;-78
2023/12/16 09:17:12;;;;;;;23.60;12.40;;;;;;;1.72;100.00;102912.61;109487;1243;71765;-78
2023/12/16 09:19:44;;;;;;;22.60;13.20;;;;;;;1.73;100.00;102913.97;109607;1244;59475;-75
2023/12/16 09:22:12;;;;;;;16.10;9.30;;;;;;;1.79;100.00;102911.57;109520;1243;60433;-74
2023/12/16 09:24:41;;;;;;;17.50;10.30;;;;;;;1.89;100.00;102909.83;109591;1244;74108;-73
2023/12/16 09:27:10;;;;;;;23.50;14.10;;;;;;;1.95;100.00;102907.60;109625;1245;69820;-77
2023/12/16 09:29:40;;;;;;;23.40;12.70;;;;;;;2.11;100.00;102903.10;109389;1248;67897;-76
2023/12/16 09:32:08;;;;;;;25.20;13.90;;;;;;;2.22;100.00;102902.89;109385;1244;72859;-78
2023/12/16 09:34:37;;;;;;;19.90;11.10;;;;;;;2.21;100.00;102895.67;109375;1247;60189;-76
2023/12/16 09:37:06;;;;;;;20.10;9.90;;;;;;;2.31;100.00;102894.62;109566;1244;58626;-75
2023/12/16 09:39:35;;;;;;;16.00;8.10;;;;;;;2.48;100.00;102886.81;109617;1242;73306;-76
2023/12/16 09:42:04;;;;;;;18.70;10.20;;;;;;;2.56;100.00;102881.10;109561;1244;72153;-83
2023/12/16 09:44:37;;;;;;;22.70;12.10;;;;;;;2.65;100.00;102879.34;109619;1243;68426;-81
2023/12/16 09:47:08;;;;;;;;;;;;;;;2.72;100.00;102875.16;109386;1244;73983;-79
2023/12/16 09:49:38;;;;;;;18.30;11.30;;;;;;;2.90;100.00;102873.36;109457;1244;61682;-80
2023/12/16 09:52:07;;;;;;;24.90;13.20;;;;;;;2.91;100.00;102871.30;109335;1244;61111;-78
2023/12/16 09:54:39;;;;;;;15.80;9.40;;;;;;;3.07;100.00;102878.92;109603;1243;74167;-78
2023/12/16 09:57:11;;;;;;;12.10;7.40;;;;;;;3.37;100.00;102879.23;109427;1243;71888;-76
2023/12/16 09:59:42;;;;;;;17.80;8.60;;;;;;;3.62;100.00;102874.20;109384;1244;70781;-81
2023/12/16 10:02:47;;;;;;;11.60;5.50;;;;;;;3.87;100.00;102868.80;109450;1244;74670;-77
2023/12/16 10:05:38;;;;;;;8.40;4.60;;;;;;;3.99;100.00;102875.73;109325;1247;60754;-81
2023/12/16 10:08:12;;;;;;;16.90;7.70;;;;;;;4.05;100.00;102875.69;109344;1244;61469;-80
2023/12/16 10:10:46;;;;;;;15.40;8.20;;;;;;;4.30;100.00;102868.16;109278;1243;73853;-79
2023/12/16 10:13:28;;;;;;;13.00;6.50;;;;;;;4.39;100.00;102867.17;109611;1244;72387;-78
2023/12/16 10:16:00;;;;;;;12.80;7.00;;;;;;;4.47;100.00;102870.89;109645;1244;70389;-80
2023/12/16 10:18:38;;;;;;;11.90;7.30;;;;;;;4.51;100.00;102870.99;109342;1242;64855;-78
2023/12/16 10:21:07;;;;;;;17.50;7.90;;;;;;;4.50;100.00;102871.53;109612;1244;57625;-80
2023/12/16 10:23:43;;;;;;;15.60;8.10;;;;;;;4.44;100.00;102868.50;109635;1243;57677;-80
2023/12/16 10:26:15;;;;;;;16.40;8.50;;;;;;;4.66;100.00;102873.05;109413;1244;73346;-73
2023/12/16 10:28:49;;;;;;;11.10;6.60;;;;;;;4.82;100.00;102872.66;109521;1244;72028;-73
2023/12/16 10:31:26;;;;;;;12.60;7.30;;;;;;;4.94;100.00;102873.53;109632;1244;69886;-74
2023/12/16 10:33:55;;;;;;;12.40;7.60;;;;;;;5.18;100.00;102878.86;109419;1244;64951;-73
2023/12/16 10:36:26;;;;;;;11.00;7.00;;;;;;;5.21;100.00;102883.66;109539;1245;57496;-79
2023/12/16 10:38:55;;;;;;;13.20;6.90;;;;;;;5.19;100.00;102887.13;109363;1244;57694;-80
2023/12/16 10:41:24;;;;;;;13.20;7.20;;;;;;;5.15;100.00;102888.26;109471;1244;73635;-79
2023/12/16 10:43:55;;;;;;;13.90;7.40;;;;;;;4.96;100.00;102886.79;109291;1243;61851;-78
2023/12/16 10:46:35;;;;;;;14.30;8.00;;;;;;;4.97;100.00;102891.09;109472;1244;59952;-77
2023/12/16 10:49:08;;;;;;;14.70;7.60;;;;;;;5.06;100.00;102890.28;109456;1244;73773;-80
2023/12/16 10:51:44;;;;;;;14.60;8.30;;;;;;;5.16;100.00;102889.96;109227;1246;57702;-79
2023/12/16 10:54:32;;;;;;;9.20;6.00;;;;;;;5.16;100.00;102895.30;109512;1243;61193;-77
2023/12/16 10:57:39;;;;;;;9.40;6.00;;;;;;;5.04;100.00;102892.88;109429;1244;74042;-77
2023/12/16 11:00:12;;;;;;;12.30;6.90;;;;;;;5.09;100.00;102888.67;109301;1244;71796;-78
2023/12/16 11:03:14;;;;;;;11.90;6.80;;;;;;;5.10;100.00;102884.34;109377;1245;59806;-76
2023/12/16 11:05:56;;;;;;;11.20;6.00;;;;;;;5.15;100.00;102880.83;109437;1244;73787;-77
2023/12/16 11:08:29;;;;;;;11.60;6.50;;;;;;;5.18;100.00;102874.89;109323;1244;57658;-79
2023/12/16 11:11:01;;;;;;;8.90;5.10;;;;;;;5.03;100.00;102875.80;109321;1243;61298;-81
2023/12/16 11:13:31;;;;;;;10.70;6.30;;;;;;;4.92;100.00;102875.80;109351;1244;63197;-77
2023/12/16 11:16:13;;;;;;;10.90;6.30;;;;;;;4.94;100.00;102877.67;109282;1242;71446;-78